CU-0004 weather

Guardalavaca Airport
Yaguajay, HolguĂ­n, Cuba

Public forecast

Using degrees Celsius for public forecast. Weather courtesy of forecast.io.

Closest aviation weather report (METAR) to Guardalavaca Airport

Closest report is Frank Pais International Airport, 34.0 nm (62.9 km) SW. Retrieved 2019/11/16 00:50 UTC (29 minutes ago):

MUHG 160050Z 07004KT 9000 FEW025 26/24 Q1013

Closest aviation forecast (TAF) to Guardalavaca Airport

Closest forecast is Frank Pais International Airport, 34.0 nm (62.9 km) SW. Retrieved 2019-11-16 00:03 UTC (1 hour ago):

TAF MUHG 152300Z 1600/1624 09007KT 9000 SCT020 BECMG 1601/1603 VRB03KT FEW020 TEMPO 1608/1614 5000 BR BECMG 1615/1618 08008KT SCT020